sensor_id;sensor_type;location;lat;lon;timestamp;P1;durP1;ratioP1;P2;durP2;ratioP2
53644;SDS011;39547;45.554;12.068;2022-11-27T00:04:24;39.78;;;21.88;;
53644;SDS011;39547;45.554;12.068;2022-11-27T00:10:26;38.85;;;22.50;;
53644;SDS011;39547;45.554;12.068;2022-11-27T00:16:27;32.58;;;18.83;;
53644;SDS011;39547;45.554;12.068;2022-11-27T00:22:29;37.78;;;20.58;;
53644;SDS011;39547;45.554;12.068;2022-11-27T00:28:30;34.80;;;19.52;;
53644;SDS011;39547;45.554;12.068;2022-11-27T00:34:33;36.30;;;19.75;;
53644;SDS011;39547;45.554;12.068;2022-11-27T00:40:34;35.95;;;19.15;;
53644;SDS011;39547;45.554;12.068;2022-11-27T00:46:36;33.63;;;18.75;;
53644;SDS011;39547;45.554;12.068;2022-11-27T00:52:37;33.65;;;19.05;;
53644;SDS011;39547;45.554;12.068;2022-11-27T00:58:39;33.28;;;18.58;;
53644;SDS011;39547;45.554;12.068;2022-11-27T01:04:40;32.65;;;18.65;;
53644;SDS011;39547;45.554;12.068;2022-11-27T01:10:51;29.43;;;16.83;;
53644;SDS011;39547;45.554;12.068;2022-11-27T01:16:54;36.95;;;20.92;;
53644;SDS011;39547;45.554;12.068;2022-11-27T01:22:56;37.60;;;19.90;;
53644;SDS011;39547;45.554;12.068;2022-11-27T01:28:57;29.80;;;17.95;;
53644;SDS011;39547;45.554;12.068;2022-11-27T01:34:59;33.88;;;18.38;;
53644;SDS011;39547;45.554;12.068;2022-11-27T01:41:02;30.15;;;17.13;;
53644;SDS011;39547;45.554;12.068;2022-11-27T01:47:26;32.80;;;18.15;;
53644;SDS011;39547;45.554;12.068;2022-11-27T01:53:32;31.88;;;16.48;;
53644;SDS011;39547;45.554;12.068;2022-11-27T01:59:34;31.88;;;17.33;;
53644;SDS011;39547;45.554;12.068;2022-11-27T02:05:36;30.95;;;17.60;;
53644;SDS011;39547;45.554;12.068;2022-11-27T02:30:33;26.10;;;14.90;;
53644;SDS011;39547;45.554;12.068;2022-11-27T02:36:39;27.58;;;14.57;;
53644;SDS011;39547;45.554;12.068;2022-11-27T02:42:49;27.15;;;13.55;;
53644;SDS011;39547;45.554;12.068;2022-11-27T02:48:56;26.88;;;14.05;;
53644;SDS011;39547;45.554;12.068;2022-11-27T02:55:03;24.35;;;12.52;;
53644;SDS011;39547;45.554;12.068;2022-11-27T03:01:08;22.35;;;11.73;;
53644;SDS011;39547;45.554;12.068;2022-11-27T03:07:13;26.10;;;13.87;;
53644;SDS011;39547;45.554;12.068;2022-11-27T03:13:19;24.52;;;12.70;;
53644;SDS011;39547;45.554;12.068;2022-11-27T03:19:22;23.83;;;13.05;;
53644;SDS011;39547;45.554;12.068;2022-11-27T03:25:28;23.77;;;12.15;;
53644;SDS011;39547;45.554;12.068;2022-11-27T03:31:29;23.73;;;12.23;;
53644;SDS011;39547;45.554;12.068;2022-11-27T03:37:31;25.27;;;12.20;;
53644;SDS011;39547;45.554;12.068;2022-11-27T03:43:34;23.10;;;11.98;;
53644;SDS011;39547;45.554;12.068;2022-11-27T03:49:53;22.85;;;11.70;;
53644;SDS011;39547;45.554;12.068;2022-11-27T03:56:24;22.83;;;10.50;;
53644;SDS011;39547;45.554;12.068;2022-11-27T04:02:29;22.15;;;10.85;;
53644;SDS011;39547;45.554;12.068;2022-11-27T04:08:38;22.38;;;11.18;;
53644;SDS011;39547;45.554;12.068;2022-11-27T04:14:40;21.52;;;10.80;;
53644;SDS011;39547;45.554;12.068;2022-11-27T04:20:41;20.23;;;10.27;;
53644;SDS011;39547;45.554;12.068;2022-11-27T04:26:43;22.05;;;9.80;;
53644;SDS011;39547;45.554;12.068;2022-11-27T04:32:45;21.60;;;10.40;;
53644;SDS011;39547;45.554;12.068;2022-11-27T04:38:46;19.70;;;9.48;;
53644;SDS011;39547;45.554;12.068;2022-11-27T04:44:47;18.52;;;8.77;;
53644;SDS011;39547;45.554;12.068;2022-11-27T04:50:49;18.40;;;8.60;;
53644;SDS011;39547;45.554;12.068;2022-11-27T04:56:50;17.92;;;8.52;;
53644;SDS011;39547;45.554;12.068;2022-11-27T05:02:52;19.13;;;8.60;;
53644;SDS011;39547;45.554;12.068;2022-11-27T05:08:53;20.15;;;9.05;;
53644;SDS011;39547;45.554;12.068;2022-11-27T05:15:01;19.13;;;8.57;;
53644;SDS011;39547;45.554;12.068;2022-11-27T05:21:04;18.98;;;8.45;;
53644;SDS011;39547;45.554;12.068;2022-11-27T05:27:07;20.17;;;8.63;;
53644;SDS011;39547;45.554;12.068;2022-11-27T05:33:08;17.83;;;7.85;;
53644;SDS011;39547;45.554;12.068;2022-11-27T05:39:10;18.75;;;8.77;;
53644;SDS011;39547;45.554;12.068;2022-11-27T05:45:11;17.60;;;7.68;;
53644;SDS011;39547;45.554;12.068;2022-11-27T05:51:13;17.15;;;7.53;;
53644;SDS011;39547;45.554;12.068;2022-11-27T05:57:15;17.15;;;7.30;;
53644;SDS011;39547;45.554;12.068;2022-11-27T06:03:16;17.45;;;7.75;;
53644;SDS011;39547;45.554;12.068;2022-11-27T06:09:18;15.55;;;6.88;;
53644;SDS011;39547;45.554;12.068;2022-11-27T06:15:20;17.15;;;7.30;;
53644;SDS011;39547;45.554;12.068;2022-11-27T06:21:22;16.70;;;7.07;;
53644;SDS011;39547;45.554;12.068;2022-11-27T06:27:23;17.30;;;7.60;;
53644;SDS011;39547;45.554;12.068;2022-11-27T06:33:25;18.45;;;7.90;;
53644;SDS011;39547;45.554;12.068;2022-11-27T06:39:27;17.05;;;7.32;;
53644;SDS011;39547;45.554;12.068;2022-11-27T06:45:28;17.15;;;7.43;;
53644;SDS011;39547;45.554;12.068;2022-11-27T06:51:30;16.05;;;6.97;;
53644;SDS011;39547;45.554;12.068;2022-11-27T06:57:33;17.35;;;7.57;;
53644;SDS011;39547;45.554;12.068;2022-11-27T07:03:34;15.80;;;6.35;;
53644;SDS011;39547;45.554;12.068;2022-11-27T07:09:36;15.40;;;6.45;;
53644;SDS011;39547;45.554;12.068;2022-11-27T07:15:37;16.65;;;7.00;;
53644;SDS011;39547;45.554;12.068;2022-11-27T07:21:39;15.75;;;6.50;;
53644;SDS011;39547;45.554;12.068;2022-11-27T07:27:41;16.17;;;7.00;;
53644;SDS011;39547;45.554;12.068;2022-11-27T07:33:42;16.77;;;7.10;;
53644;SDS011;39547;45.554;12.068;2022-11-27T07:39:43;16.75;;;6.97;;
53644;SDS011;39547;45.554;12.068;2022-11-27T07:45:45;16.67;;;7.03;;
53644;SDS011;39547;45.554;12.068;2022-11-27T07:51:46;16.25;;;6.63;;
53644;SDS011;39547;45.554;12.068;2022-11-27T07:57:48;15.50;;;6.13;;
53644;SDS011;39547;45.554;12.068;2022-11-27T08:03:49;16.02;;;6.53;;
53644;SDS011;39547;45.554;12.068;2022-11-27T08:09:51;17.75;;;7.03;;
53644;SDS011;39547;45.554;12.068;2022-11-27T08:15:52;16.45;;;6.63;;
53644;SDS011;39547;45.554;12.068;2022-11-27T08:21:54;16.60;;;6.75;;
53644;SDS011;39547;45.554;12.068;2022-11-27T08:27:57;15.75;;;6.63;;
53644;SDS011;39547;45.554;12.068;2022-11-27T08:33:59;17.20;;;7.18;;
53644;SDS011;39547;45.554;12.068;2022-11-27T08:40:01;17.50;;;7.95;;
53644;SDS011;39547;45.554;12.068;2022-11-27T08:46:04;16.70;;;7.70;;
53644;SDS011;39547;45.554;12.068;2022-11-27T08:52:07;16.42;;;7.35;;
53644;SDS011;39547;45.554;12.068;2022-11-27T08:58:08;16.35;;;7.07;;
53644;SDS011;39547;45.554;12.068;2022-11-27T09:04:10;15.25;;;6.10;;
53644;SDS011;39547;45.554;12.068;2022-11-27T09:10:11;14.55;;;6.32;;
53644;SDS011;39547;45.554;12.068;2022-11-27T09:16:14;14.45;;;5.85;;
53644;SDS011;39547;45.554;12.068;2022-11-27T09:22:17;14.35;;;5.95;;
53644;SDS011;39547;45.554;12.068;2022-11-27T09:28:19;15.32;;;6.28;;
53644;SDS011;39547;45.554;12.068;2022-11-27T09:34:21;13.70;;;5.63;;
53644;SDS011;39547;45.554;12.068;2022-11-27T09:40:22;15.05;;;5.82;;
53644;SDS011;39547;45.554;12.068;2022-11-27T09:46:31;13.90;;;5.68;;
53644;SDS011;39547;45.554;12.068;2022-11-27T09:52:37;13.57;;;5.32;;
53644;SDS011;39547;45.554;12.068;2022-11-27T09:58:53;13.57;;;5.28;;
53644;SDS011;39547;45.554;12.068;2022-11-27T10:04:58;14.07;;;5.45;;
53644;SDS011;39547;45.554;12.068;2022-11-27T10:29:47;12.93;;;4.20;;
53644;SDS011;39547;45.554;12.068;2022-11-27T10:35:52;11.57;;;3.63;;
53644;SDS011;39547;45.554;12.068;2022-11-27T10:42:02;11.82;;;3.55;;
53644;SDS011;39547;45.554;12.068;2022-11-27T10:48:12;11.80;;;3.80;;
53644;SDS011;39547;45.554;12.068;2022-11-27T10:54:36;11.40;;;3.78;;
53644;SDS011;39547;45.554;12.068;2022-11-27T11:00:38;12.48;;;3.38;;
53644;SDS011;39547;45.554;12.068;2022-11-27T11:06:48;11.38;;;3.40;;
53644;SDS011;39547;45.554;12.068;2022-11-27T11:13:01;10.85;;;3.20;;
53644;SDS011;39547;45.554;12.068;2022-11-27T11:19:31;12.88;;;3.58;;
53644;SDS011;39547;45.554;12.068;2022-11-27T11:25:35;12.30;;;3.22;;
53644;SDS011;39547;45.554;12.068;2022-11-27T11:31:37;11.68;;;3.70;;
53644;SDS011;39547;45.554;12.068;2022-11-27T11:37:40;12.93;;;4.40;;
53644;SDS011;39547;45.554;12.068;2022-11-27T11:43:56;12.05;;;3.63;;
53644;SDS011;39547;45.554;12.068;2022-11-27T11:50:01;12.43;;;4.07;;
53644;SDS011;39547;45.554;12.068;2022-11-27T12:02:59;11.40;;;3.17;;
53644;SDS011;39547;45.554;12.068;2022-11-27T12:15:25;10.90;;;3.00;;
53644;SDS011;39547;45.554;12.068;2022-11-27T12:21:45;10.52;;;2.92;;
53644;SDS011;39547;45.554;12.068;2022-11-27T12:34:38;12.18;;;3.28;;
53644;SDS011;39547;45.554;12.068;2022-11-27T12:40:59;10.20;;;2.80;;
53644;SDS011;39547;45.554;12.068;2022-11-27T12:47:05;10.70;;;2.90;;
53644;SDS011;39547;45.554;12.068;2022-11-27T12:53:19;10.25;;;2.90;;
53644;SDS011;39547;45.554;12.068;2022-11-27T12:59:34;10.23;;;3.03;;
53644;SDS011;39547;45.554;12.068;2022-11-27T13:05:46;10.65;;;3.10;;
53644;SDS011;39547;45.554;12.068;2022-11-27T13:11:49;11.95;;;3.38;;
53644;SDS011;39547;45.554;12.068;2022-11-27T13:17:54;10.60;;;3.00;;
53644;SDS011;39547;45.554;12.068;2022-11-27T13:24:08;11.45;;;3.70;;
53644;SDS011;39547;45.554;12.068;2022-11-27T13:30:22;11.38;;;3.08;;
53644;SDS011;39547;45.554;12.068;2022-11-27T13:36:26;10.18;;;2.75;;
53644;SDS011;39547;45.554;12.068;2022-11-27T13:42:34;10.27;;;2.90;;
53644;SDS011;39547;45.554;12.068;2022-11-27T13:48:41;10.27;;;2.85;;
53644;SDS011;39547;45.554;12.068;2022-11-27T13:54:53;9.60;;;2.53;;
53644;SDS011;39547;45.554;12.068;2022-11-27T14:00:56;10.23;;;2.72;;
53644;SDS011;39547;45.554;12.068;2022-11-27T14:06:59;10.65;;;2.95;;
53644;SDS011;39547;45.554;12.068;2022-11-27T14:13:07;9.95;;;2.47;;
53644;SDS011;39547;45.554;12.068;2022-11-27T14:19:26;11.38;;;3.70;;
53644;SDS011;39547;45.554;12.068;2022-11-27T14:25:32;10.90;;;3.70;;
53644;SDS011;39547;45.554;12.068;2022-11-27T14:31:36;11.55;;;3.15;;
53644;SDS011;39547;45.554;12.068;2022-11-27T14:37:37;9.93;;;2.78;;
53644;SDS011;39547;45.554;12.068;2022-11-27T14:43:39;10.60;;;2.80;;
53644;SDS011;39547;45.554;12.068;2022-11-27T14:49:40;10.40;;;3.05;;
53644;SDS011;39547;45.554;12.068;2022-11-27T14:55:42;10.30;;;3.00;;
53644;SDS011;39547;45.554;12.068;2022-11-27T15:01:44;10.98;;;3.20;;
53644;SDS011;39547;45.554;12.068;2022-11-27T15:07:57;10.73;;;3.10;;
53644;SDS011;39547;45.554;12.068;2022-11-27T15:14:01;10.73;;;3.30;;
53644;SDS011;39547;45.554;12.068;2022-11-27T15:20:09;10.68;;;3.60;;
53644;SDS011;39547;45.554;12.068;2022-11-27T15:26:44;12.00;;;3.75;;
53644;SDS011;39547;45.554;12.068;2022-11-27T15:32:46;11.55;;;3.88;;
53644;SDS011;39547;45.554;12.068;2022-11-27T15:39:02;12.32;;;4.15;;
53644;SDS011;39547;45.554;12.068;2022-11-27T15:45:18;12.95;;;4.43;;
53644;SDS011;39547;45.554;12.068;2022-11-27T15:51:20;12.88;;;4.55;;
53644;SDS011;39547;45.554;12.068;2022-11-27T15:57:22;15.10;;;5.50;;
53644;SDS011;39547;45.554;12.068;2022-11-27T16:03:24;14.43;;;5.60;;
53644;SDS011;39547;45.554;12.068;2022-11-27T16:09:25;15.38;;;6.30;;
53644;SDS011;39547;45.554;12.068;2022-11-27T16:15:27;16.75;;;7.47;;
53644;SDS011;39547;45.554;12.068;2022-11-27T16:21:28;16.65;;;7.03;;
53644;SDS011;39547;45.554;12.068;2022-11-27T16:27:30;19.50;;;8.00;;
53644;SDS011;39547;45.554;12.068;2022-11-27T16:33:31;17.52;;;8.15;;
53644;SDS011;39547;45.554;12.068;2022-11-27T16:39:33;18.33;;;8.43;;
53644;SDS011;39547;45.554;12.068;2022-11-27T16:45:34;20.92;;;9.00;;
53644;SDS011;39547;45.554;12.068;2022-11-27T16:51:39;19.42;;;8.55;;
53644;SDS011;39547;45.554;12.068;2022-11-27T16:57:44;19.48;;;9.35;;
53644;SDS011;39547;45.554;12.068;2022-11-27T17:03:46;20.60;;;10.20;;
53644;SDS011;39547;45.554;12.068;2022-11-27T17:09:48;21.33;;;10.23;;
53644;SDS011;39547;45.554;12.068;2022-11-27T17:15:50;22.55;;;11.00;;
53644;SDS011;39547;45.554;12.068;2022-11-27T17:21:51;26.85;;;13.95;;
53644;SDS011;39547;45.554;12.068;2022-11-27T17:27:53;29.33;;;14.68;;
53644;SDS011;39547;45.554;12.068;2022-11-27T17:33:55;27.90;;;15.40;;
53644;SDS011;39547;45.554;12.068;2022-11-27T17:39:57;31.48;;;16.67;;
53644;SDS011;39547;45.554;12.068;2022-11-27T17:45:59;31.15;;;17.63;;
53644;SDS011;39547;45.554;12.068;2022-11-27T17:52:00;33.70;;;18.05;;
53644;SDS011;39547;45.554;12.068;2022-11-27T17:58:02;33.13;;;17.90;;
53644;SDS011;39547;45.554;12.068;2022-11-27T18:04:05;35.75;;;19.45;;
53644;SDS011;39547;45.554;12.068;2022-11-27T18:10:06;38.45;;;20.98;;
53644;SDS011;39547;45.554;12.068;2022-11-27T18:16:12;34.40;;;19.15;;
53644;SDS011;39547;45.554;12.068;2022-11-27T18:22:25;36.55;;;19.35;;
53644;SDS011;39547;45.554;12.068;2022-11-27T18:28:26;37.08;;;20.88;;
53644;SDS011;39547;45.554;12.068;2022-11-27T18:34:27;36.25;;;20.20;;
53644;SDS011;39547;45.554;12.068;2022-11-27T18:40:29;35.58;;;19.35;;
53644;SDS011;39547;45.554;12.068;2022-11-27T18:46:33;36.83;;;21.10;;
53644;SDS011;39547;45.554;12.068;2022-11-27T18:52:35;45.22;;;25.33;;
53644;SDS011;39547;45.554;12.068;2022-11-27T18:58:37;47.83;;;26.52;;
53644;SDS011;39547;45.554;12.068;2022-11-27T19:04:39;42.28;;;24.95;;
53644;SDS011;39547;45.554;12.068;2022-11-27T19:10:42;46.95;;;26.25;;
53644;SDS011;39547;45.554;12.068;2022-11-27T19:16:44;47.25;;;26.83;;
53644;SDS011;39547;45.554;12.068;2022-11-27T19:22:46;56.83;;;30.95;;
53644;SDS011;39547;45.554;12.068;2022-11-27T19:28:50;62.45;;;32.95;;
53644;SDS011;39547;45.554;12.068;2022-11-27T19:34:52;69.47;;;37.78;;
53644;SDS011;39547;45.554;12.068;2022-11-27T19:40:54;62.75;;;36.33;;
53644;SDS011;39547;45.554;12.068;2022-11-27T19:46:56;72.28;;;38.95;;
53644;SDS011;39547;45.554;12.068;2022-11-27T19:53:01;78.95;;;41.95;;
53644;SDS011;39547;45.554;12.068;2022-11-27T19:59:06;79.90;;;41.22;;
53644;SDS011;39547;45.554;12.068;2022-11-27T20:05:08;84.53;;;44.97;;
53644;SDS011;39547;45.554;12.068;2022-11-27T20:11:11;87.75;;;46.42;;
53644;SDS011;39547;45.554;12.068;2022-11-27T20:23:17;88.22;;;46.25;;
53644;SDS011;39547;45.554;12.068;2022-11-27T20:29:19;92.97;;;49.88;;
53644;SDS011;39547;45.554;12.068;2022-11-27T20:35:21;98.18;;;45.90;;
53644;SDS011;39547;45.554;12.068;2022-11-27T20:41:23;95.97;;;49.47;;
53644;SDS011;39547;45.554;12.068;2022-11-27T20:47:25;103.60;;;50.83;;
53644;SDS011;39547;45.554;12.068;2022-11-27T20:53:27;114.38;;;53.85;;
53644;SDS011;39547;45.554;12.068;2022-11-27T20:59:28;111.68;;;55.10;;
53644;SDS011;39547;45.554;12.068;2022-11-27T21:05:30;89.20;;;47.90;;
53644;SDS011;39547;45.554;12.068;2022-11-27T21:11:32;102.03;;;51.88;;
53644;SDS011;39547;45.554;12.068;2022-11-27T21:17:35;119.88;;;60.60;;
53644;SDS011;39547;45.554;12.068;2022-11-27T21:23:37;104.55;;;53.00;;
53644;SDS011;39547;45.554;12.068;2022-11-27T21:29:39;95.00;;;49.75;;
53644;SDS011;39547;45.554;12.068;2022-11-27T21:35:40;111.25;;;58.50;;
53644;SDS011;39547;45.554;12.068;2022-11-27T21:41:42;94.00;;;48.50;;
53644;SDS011;39547;45.554;12.068;2022-11-27T21:47:45;94.15;;;49.78;;
53644;SDS011;39547;45.554;12.068;2022-11-27T21:53:48;90.55;;;47.65;;
53644;SDS011;39547;45.554;12.068;2022-11-27T21:59:51;86.50;;;46.05;;
53644;SDS011;39547;45.554;12.068;2022-11-27T22:05:56;76.80;;;44.17;;
53644;SDS011;39547;45.554;12.068;2022-11-27T22:11:58;83.60;;;45.53;;
53644;SDS011;39547;45.554;12.068;2022-11-27T22:18:00;66.63;;;39.05;;
53644;SDS011;39547;45.554;12.068;2022-11-27T22:24:02;73.57;;;39.85;;
53644;SDS011;39547;45.554;12.068;2022-11-27T22:30:03;69.18;;;37.83;;
53644;SDS011;39547;45.554;12.068;2022-11-27T22:36:25;67.60;;;36.92;;
53644;SDS011;39547;45.554;12.068;2022-11-27T22:42:30;64.20;;;36.47;;
53644;SDS011;39547;45.554;12.068;2022-11-27T22:48:32;69.55;;;37.55;;
53644;SDS011;39547;45.554;12.068;2022-11-27T22:54:33;59.17;;;34.22;;
53644;SDS011;39547;45.554;12.068;2022-11-27T23:00:35;54.47;;;32.30;;
53644;SDS011;39547;45.554;12.068;2022-11-27T23:06:37;57.15;;;33.58;;
53644;SDS011;39547;45.554;12.068;2022-11-27T23:12:38;52.45;;;30.52;;
53644;SDS011;39547;45.554;12.068;2022-11-27T23:18:40;49.00;;;28.80;;
53644;SDS011;39547;45.554;12.068;2022-11-27T23:24:42;49.60;;;28.92;;
53644;SDS011;39547;45.554;12.068;2022-11-27T23:30:43;50.38;;;27.98;;
53644;SDS011;39547;45.554;12.068;2022-11-27T23:36:44;47.00;;;27.00;;
53644;SDS011;39547;45.554;12.068;2022-11-27T23:42:46;42.25;;;24.25;;
53644;SDS011;39547;45.554;12.068;2022-11-27T23:48:47;47.13;;;27.00;;
53644;SDS011;39547;45.554;12.068;2022-11-27T23:54:49;39.13;;;23.77;;
